Time;durP1;ratioP1;P1;durP2;ratioP2;P2;SDS_P1;SDS_P2;PMS_P1;PMS_P2;Temp;Humidity;BMP_temperature;BMP_pressure;BME280_temperature;BME280_humidity;BME280_pressure;Samples;Min_cycle;Max_cycle;Signal;HPM_P1;HPM_P2
2021/05/25 00:01:16;;;;;;;2.10;0.40;;;;;;;;;;5069511;28;20020;-62
2021/05/25 00:03:41;;;;;;;2.95;0.57;;;;;;;;;;5069436;28;20041;-62
2021/05/25 00:06:06;;;;;;;1.38;0.40;;;;;;;;;;5067226;28;20013;-62
2021/05/25 00:08:31;;;;;;;1.55;0.80;;;;;;;;;;5067889;28;20009;-63
2021/05/25 00:10:57;;;;;;;1.23;0.32;;;;;;;;;;5072505;28;20028;-62
2021/05/25 00:13:22;;;;;;;1.50;0.35;;;;;;;;;;5077835;28;20027;-61
2021/05/25 00:15:52;;;;;;;2.10;0.35;;;;;;;;;;5072636;28;20021;-62
2021/05/25 00:18:17;;;;;;;1.10;0.43;;;;;;;;;;5071796;28;20114;-62
2021/05/25 00:20:43;;;;;;;0.90;0.40;;;;;;;;;;5072979;28;20024;-62
2021/05/25 00:23:08;;;;;;;0.75;0.30;;;;;;;;;;5075175;28;20085;-62
2021/05/25 00:25:33;;;;;;;1.20;0.50;;;;;;;;;;5073656;28;20051;-62
2021/05/25 00:27:58;;;;;;;1.15;0.30;;;;;;;;;;5071344;28;20107;-62
2021/05/25 00:30:24;;;;;;;1.02;0.50;;;;;;;;;;5073779;28;20021;-62
2021/05/25 00:32:50;;;;;;;1.42;0.30;;;;;;;;;;5074673;28;20020;-62
2021/05/25 00:35:15;;;;;;;1.40;0.30;;;;;;;;;;5074373;28;20012;-62
2021/05/25 00:37:41;;;;;;;1.02;0.20;;;;;;;;;;5066955;28;20044;-62
2021/05/25 00:40:07;;;;;;;0.82;0.30;;;;;;;;;;5072406;28;20017;-62
2021/05/25 00:42:32;;;;;;;0.50;0.30;;;;;;;;;;5073876;28;20418;-62
2021/05/25 00:44:57;;;;;;;0.70;0.28;;;;;;;;;;5073810;28;20028;-63
2021/05/25 00:47:30;;;;;;;0.95;0.32;;;;;;;;;;5070776;28;20038;-62
2021/05/25 00:49:55;;;;;;;1.25;0.35;;;;;;;;;;5062695;28;20032;-62
2021/05/25 00:52:21;;;;;;;0.47;0.20;;;;;;;;;;5073428;28;20463;-62
2021/05/25 00:54:46;;;;;;;1.00;0.20;;;;;;;;;;5074118;28;20024;-62
2021/05/25 00:57:12;;;;;;;0.95;0.20;;;;;;;;;;5071490;28;20024;-62
2021/05/25 00:59:37;;;;;;;1.48;0.20;;;;;;;;;;5072208;28;20270;-62
2021/05/25 01:02:03;;;;;;;1.50;0.20;;;;;;;;;;5072602;28;20024;-62
2021/05/25 01:04:28;;;;;;;1.13;0.20;;;;;;;;;;5071796;28;20379;-60
2021/05/25 01:06:53;;;;;;;1.20;0.25;;;;;;;;;;5070445;28;20051;-60
2021/05/25 01:09:18;;;;;;;1.45;0.30;;;;;;;;;;5070892;28;20028;-60
2021/05/25 01:11:45;;;;;;;0.43;0.20;;;;;;;;;;5072468;28;20129;-60
2021/05/25 01:14:11;;;;;;;1.27;0.30;;;;;;;;;;5073260;28;20024;-61
2021/05/25 01:16:36;;;;;;;1.98;0.38;;;;;;;;;;5070929;28;20423;-61
2021/05/25 01:19:01;;;;;;;1.05;0.30;;;;;;;;;;5070806;28;20492;-61
2021/05/25 01:21:26;;;;;;;2.55;0.60;;;;;;;;;;5073563;28;20494;-61
2021/05/25 01:23:52;;;;;;;1.48;0.70;;;;;;;;;;5072936;28;20016;-61
2021/05/25 01:26:18;;;;;;;1.17;0.30;;;;;;;;;;5067948;28;20024;-62
2021/05/25 01:28:48;;;;;;;3.55;0.63;;;;;;;;;;5070847;28;20021;-61
2021/05/25 01:31:13;;;;;;;1.70;0.32;;;;;;;;;;5060041;28;20055;-61
2021/05/25 01:33:39;;;;;;;0.68;0.30;;;;;;;;;;5067442;28;20060;-62
2021/05/25 01:36:08;;;;;;;0.95;0.30;;;;;;;;;;5072516;28;20418;-61
2021/05/25 01:38:33;;;;;;;1.02;0.30;;;;;;;;;;5067228;28;20089;-62
2021/05/25 01:40:59;;;;;;;1.48;0.30;;;;;;;;;;5070663;28;20489;-62
2021/05/25 01:43:24;;;;;;;2.78;0.50;;;;;;;;;;5073044;28;20031;-62
2021/05/25 01:45:49;;;;;;;1.20;0.30;;;;;;;;;;5073615;28;20456;-61
2021/05/25 01:48:15;;;;;;;1.25;0.25;;;;;;;;;;5076722;28;20074;-61
2021/05/25 01:50:40;;;;;;;2.13;0.20;;;;;;;;;;5072390;28;20037;-62
2021/05/25 01:53:07;;;;;;;0.90;0.20;;;;;;;;;;5073407;28;20028;-61
2021/05/25 01:55:36;;;;;;;0.60;0.20;;;;;;;;;;5070524;28;20039;-61
2021/05/25 01:58:05;;;;;;;0.68;0.20;;;;;;;;;;5068297;28;20070;-62
2021/05/25 02:00:30;;;;;;;2.33;0.40;;;;;;;;;;5071292;28;20032;-61
2021/05/25 02:02:55;;;;;;;0.93;0.20;;;;;;;;;;5071831;28;20074;-61
2021/05/25 02:05:21;;;;;;;0.68;0.30;;;;;;;;;;5072804;28;20028;-61
2021/05/25 02:07:47;;;;;;;2.05;0.20;;;;;;;;;;5069845;28;20020;-62
2021/05/25 02:10:26;;;;;;;3.10;0.25;;;;;;;;;;5070873;28;20028;-61
2021/05/25 02:12:52;;;;;;;0.45;0.17;;;;;;;;;;5072117;28;20463;-61
2021/05/25 02:15:17;;;;;;;0.82;0.20;;;;;;;;;;5072801;28;20025;-61
2021/05/25 02:17:42;;;;;;;0.47;0.20;;;;;;;;;;5069438;28;20024;-61
2021/05/25 02:20:08;;;;;;;0.57;0.10;;;;;;;;;;5103909;28;20036;-61
2021/05/25 02:22:33;;;;;;;2.20;0.20;;;;;;;;;;5072391;28;20060;-62
2021/05/25 02:24:59;;;;;;;0.30;0.20;;;;;;;;;;5071133;28;20032;-61
2021/05/25 02:27:24;;;;;;;1.05;0.10;;;;;;;;;;5069388;28;20100;-61
2021/05/25 02:29:49;;;;;;;0.77;0.30;;;;;;;;;;5071394;28;20120;-62
2021/05/25 02:32:14;;;;;;;0.10;0.10;;;;;;;;;;5072643;28;20020;-62
2021/05/25 02:34:39;;;;;;;0.22;0.20;;;;;;;;;;5071352;28;20020;-62
2021/05/25 02:37:05;;;;;;;2.13;0.10;;;;;;;;;;5069004;28;20483;-62
2021/05/25 02:39:30;;;;;;;0.30;0.10;;;;;;;;;;5071425;28;20020;-62
2021/05/25 02:41:55;;;;;;;0.82;0.20;;;;;;;;;;5063668;28;20020;-61
2021/05/25 02:44:20;;;;;;;0.90;0.10;;;;;;;;;;5071436;28;20031;-62
2021/05/25 02:46:45;;;;;;;0.52;0.10;;;;;;;;;;5068727;28;20627;-62
2021/05/25 02:49:11;;;;;;;1.38;0.20;;;;;;;;;;5078900;28;20025;-62
2021/05/25 02:51:36;;;;;;;0.60;0.20;;;;;;;;;;5071689;28;20065;-62
2021/05/25 02:54:01;;;;;;;0.40;0.10;;;;;;;;;;5072091;28;20017;-61
2021/05/25 02:56:26;;;;;;;0.90;0.10;;;;;;;;;;5070132;28;20050;-62
2021/05/25 02:58:53;;;;;;;0.30;0.00;;;;;;;;;;5068552;28;20028;-61
2021/05/25 03:01:19;;;;;;;0.63;0.10;;;;;;;;;;5061549;28;20126;-61
2021/05/25 03:03:44;;;;;;;0.77;0.15;;;;;;;;;;5065613;28;20038;-61
2021/05/25 03:06:09;;;;;;;0.73;0.10;;;;;;;;;;5103647;28;20476;-61
2021/05/25 03:08:34;;;;;;;0.98;0.20;;;;;;;;;;5068835;28;20464;-61
2021/05/25 03:10:59;;;;;;;2.00;0.10;;;;;;;;;;5072513;28;20395;-61
2021/05/25 03:13:25;;;;;;;0.70;0.10;;;;;;;;;;5066715;28;20467;-62
2021/05/25 03:15:51;;;;;;;1.50;0.20;;;;;;;;;;5069779;28;20033;-61
2021/05/25 03:18:16;;;;;;;1.88;0.20;;;;;;;;;;5068304;28;20016;-61
2021/05/25 03:20:44;;;;;;;1.25;0.20;;;;;;;;;;5071242;28;20597;-61
2021/05/25 03:23:09;;;;;;;1.15;0.13;;;;;;;;;;5071945;28;20021;-62
2021/05/25 03:25:34;;;;;;;1.77;0.20;;;;;;;;;;5070248;28;20491;-61
2021/05/25 03:27:59;;;;;;;1.20;0.13;;;;;;;;;;5069126;28;20383;-62
2021/05/25 03:30:27;;;;;;;0.63;0.10;;;;;;;;;;5069638;28;20020;-61
2021/05/25 03:32:52;;;;;;;1.25;0.05;;;;;;;;;;5071223;28;20513;-61
2021/05/25 03:35:19;;;;;;;1.02;0.20;;;;;;;;;;5102238;28;20017;-62
2021/05/25 03:37:44;;;;;;;0.77;0.17;;;;;;;;;;5066633;28;20040;-62
2021/05/25 03:40:11;;;;;;;1.48;0.20;;;;;;;;;;5071094;28;20074;-62
2021/05/25 03:42:36;;;;;;;0.50;0.10;;;;;;;;;;5069972;28;20115;-61
2021/05/25 03:45:02;;;;;;;0.30;0.00;;;;;;;;;;5070383;28;20116;-61
2021/05/25 03:47:27;;;;;;;2.08;0.10;;;;;;;;;;5072237;28;20379;-62
2021/05/25 03:49:53;;;;;;;0.50;0.10;;;;;;;;;;5074414;28;20020;-61
2021/05/25 03:52:18;;;;;;;1.23;0.10;;;;;;;;;;5074341;28;20027;-61
2021/05/25 03:54:52;;;;;;;1.08;0.22;;;;;;;;;;5074167;28;20379;-61
2021/05/25 03:59:57;;;;;;;1.55;0.60;;;;;;;;;;5075171;28;20029;-61
2021/05/25 04:02:22;;;;;;;0.80;0.30;;;;;;;;;;5073268;28;20104;-62
2021/05/25 04:04:47;;;;;;;1.95;0.45;;;;;;;;;;5074064;28;20123;-63
2021/05/25 04:07:13;;;;;;;1.85;0.43;;;;;;;;;;5071589;28;20017;-62
2021/05/25 04:09:38;;;;;;;1.13;0.40;;;;;;;;;;5074636;28;20035;-62
2021/05/25 04:12:04;;;;;;;1.27;0.20;;;;;;;;;;5073347;28;20506;-62
2021/05/25 04:14:29;;;;;;;0.20;0.10;;;;;;;;;;5074623;28;20036;-63
2021/05/25 04:16:55;;;;;;;0.57;0.10;;;;;;;;;;5071102;28;20107;-62
2021/05/25 04:19:20;;;;;;;1.20;0.20;;;;;;;;;;5074800;28;20028;-62
2021/05/25 04:21:47;;;;;;;1.02;0.10;;;;;;;;;;5073986;28;20031;-63
2021/05/25 04:24:12;;;;;;;0.25;0.00;;;;;;;;;;5074797;28;20027;-62
2021/05/25 04:26:37;;;;;;;1.33;0.22;;;;;;;;;;5069091;28;20036;-62
2021/05/25 04:29:03;;;;;;;0.60;0.20;;;;;;;;;;5073521;28;20012;-62
2021/05/25 04:31:28;;;;;;;0.60;0.03;;;;;;;;;;5073162;28;20031;-62
2021/05/25 04:33:53;;;;;;;0.55;0.10;;;;;;;;;;5074610;28;20021;-62
2021/05/25 04:36:19;;;;;;;0.70;0.10;;;;;;;;;;5073850;28;20017;-62
2021/05/25 04:38:44;;;;;;;1.65;0.20;;;;;;;;;;5069815;28;20127;-62
2021/05/25 04:41:09;;;;;;;0.60;0.10;;;;;;;;;;5073367;28;20024;-62
2021/05/25 04:43:34;;;;;;;0.98;0.10;;;;;;;;;;5072914;28;20017;-62
2021/05/25 04:46:00;;;;;;;1.17;0.20;;;;;;;;;;5073423;28;20035;-63
2021/05/25 04:48:25;;;;;;;0.75;0.10;;;;;;;;;;5077194;28;20044;-62
2021/05/25 04:50:50;;;;;;;1.30;0.10;;;;;;;;;;5073847;28;20073;-60
2021/05/25 04:53:15;;;;;;;1.90;0.10;;;;;;;;;;5074668;28;20048;-60
2021/05/25 04:55:41;;;;;;;0.52;0.10;;;;;;;;;;5072532;28;20021;-61
2021/05/25 04:58:06;;;;;;;2.10;0.32;;;;;;;;;;5071214;28;20021;-60
2021/05/25 05:00:31;;;;;;;1.50;0.10;;;;;;;;;;5071704;28;20025;-61
2021/05/25 05:02:56;;;;;;;0.25;0.10;;;;;;;;;;5106304;28;20105;-60
2021/05/25 05:05:23;;;;;;;1.27;0.08;;;;;;;;;;5072449;28;20032;-61
2021/05/25 05:07:48;;;;;;;0.70;0.20;;;;;;;;;;5071054;28;20467;-61
2021/05/25 05:10:14;;;;;;;1.60;0.10;;;;;;;;;;5071840;28;20134;-61
2021/05/25 05:12:39;;;;;;;0.90;0.10;;;;;;;;;;5077971;28;20023;-61
2021/05/25 05:15:05;;;;;;;0.93;0.20;;;;;;;;;;5068627;28;20099;-61
2021/05/25 05:17:31;;;;;;;0.60;0.10;;;;;;;;;;5070002;28;20020;-62
2021/05/25 05:19:56;;;;;;;0.55;0.10;;;;;;;;;;5073108;28;20028;-61
2021/05/25 05:22:22;;;;;;;2.30;0.10;;;;;;;;;;5073734;28;20020;-61
2021/05/25 05:24:48;;;;;;;0.98;0.00;;;;;;;;;;5071916;28;20158;-61
2021/05/25 05:27:13;;;;;;;2.05;0.15;;;;;;;;;;5069128;28;20021;-62
2021/05/25 05:29:38;;;;;;;1.27;0.05;;;;;;;;;;5072388;28;20020;-62
2021/05/25 05:32:04;;;;;;;1.10;0.10;;;;;;;;;;5073812;28;20070;-62
2021/05/25 05:34:29;;;;;;;1.77;0.00;;;;;;;;;;5071496;28;20028;-62
2021/05/25 05:36:54;;;;;;;0.73;0.10;;;;;;;;;;5068908;28;20041;-62
2021/05/25 05:39:20;;;;;;;0.50;0.00;;;;;;;;;;5072979;28;20113;-61
2021/05/25 05:41:46;;;;;;;0.50;0.03;;;;;;;;;;5072681;28;20443;-62
2021/05/25 05:44:12;;;;;;;1.45;0.08;;;;;;;;;;5071986;28;20043;-61
2021/05/25 05:46:37;;;;;;;1.88;0.20;;;;;;;;;;5069114;28;20028;-61
2021/05/25 05:49:02;;;;;;;0.13;0.00;;;;;;;;;;5074011;28;20033;-61
2021/05/25 05:51:30;;;;;;;0.20;0.00;;;;;;;;;;5072418;28;20023;-62
2021/05/25 05:53:55;;;;;;;1.70;0.10;;;;;;;;;;5073275;28;20021;-62
2021/05/25 05:56:20;;;;;;;1.15;0.10;;;;;;;;;;5071383;28;20094;-62
2021/05/25 05:58:46;;;;;;;1.17;0.10;;;;;;;;;;5069992;28;20107;-62
2021/05/25 06:01:12;;;;;;;1.73;0.10;;;;;;;;;;5071610;28;20028;-62
2021/05/25 06:03:37;;;;;;;1.95;0.00;;;;;;;;;;5073024;28;20569;-60
2021/05/25 06:06:03;;;;;;;1.08;0.00;;;;;;;;;;5071522;28;20025;-60
2021/05/25 06:08:28;;;;;;;1.35;0.00;;;;;;;;;;5068931;28;20029;-61
2021/05/25 06:10:54;;;;;;;0.70;0.00;;;;;;;;;;5072054;28;20024;-61
2021/05/25 06:13:20;;;;;;;3.67;0.20;;;;;;;;;;5086327;28;20038;-61
2021/05/25 06:15:45;;;;;;;2.80;0.10;;;;;;;;;;5069854;28;20025;-61
2021/05/25 06:18:10;;;;;;;3.88;0.63;;;;;;;;;;5066652;28;20021;-63
2021/05/25 06:20:36;;;;;;;0.63;0.10;;;;;;;;;;5067464;28;20286;-63
2021/05/25 06:23:01;;;;;;;0.85;0.10;;;;;;;;;;5071245;28;20028;-63
2021/05/25 06:25:27;;;;;;;2.03;0.08;;;;;;;;;;5072601;28;20028;-62
2021/05/25 06:27:53;;;;;;;1.35;0.20;;;;;;;;;;5067316;28;20035;-62
2021/05/25 06:30:19;;;;;;;1.70;0.20;;;;;;;;;;5071390;28;20361;-62
2021/05/25 06:32:44;;;;;;;1.00;0.10;;;;;;;;;;5071490;28;20028;-63
2021/05/25 06:35:09;;;;;;;1.48;0.00;;;;;;;;;;5070589;28;20048;-63
2021/05/25 06:37:35;;;;;;;0.30;0.20;;;;;;;;;;5067184;28;20029;-63
2021/05/25 06:40:00;;;;;;;4.10;0.10;;;;;;;;;;5068302;28;20028;-64
2021/05/25 06:42:25;;;;;;;1.00;0.00;;;;;;;;;;5065519;28;20078;-62
2021/05/25 06:44:50;;;;;;;0.22;0.00;;;;;;;;;;5074686;28;20115;-63
2021/05/25 06:47:16;;;;;;;2.25;0.10;;;;;;;;;;5078122;28;20373;-63
2021/05/25 06:49:41;;;;;;;0.95;0.10;;;;;;;;;;5070044;28;20045;-63
2021/05/25 06:52:07;;;;;;;0.75;0.08;;;;;;;;;;5074968;28;20108;-63
2021/05/25 06:54:33;;;;;;;2.25;0.10;;;;;;;;;;5085497;28;20095;-63
2021/05/25 06:56:58;;;;;;;0.00;0.00;;;;;;;;;;5069003;28;20107;-64
2021/05/25 06:59:23;;;;;;;3.85;0.88;;;;;;;;;;5074720;28;20020;-63
2021/05/25 07:01:49;;;;;;;1.48;0.10;;;;;;;;;;5069012;28;20021;-64
2021/05/25 07:04:14;;;;;;;1.25;0.10;;;;;;;;;;5102682;28;20024;-63
2021/05/25 07:06:39;;;;;;;2.65;0.10;;;;;;;;;;5067323;28;20431;-63
2021/05/25 07:09:05;;;;;;;1.27;0.17;;;;;;;;;;5074618;28;20020;-63
2021/05/25 07:11:30;;;;;;;2.75;0.40;;;;;;;;;;5069811;28;20464;-63
2021/05/25 07:13:57;;;;;;;1.98;0.10;;;;;;;;;;5069908;28;20021;-63
2021/05/25 07:16:22;;;;;;;0.60;0.05;;;;;;;;;;5071393;28;20023;-62
2021/05/25 07:18:48;;;;;;;1.02;0.15;;;;;;;;;;5077553;28;20017;-63
2021/05/25 07:21:13;;;;;;;0.28;0.00;;;;;;;;;;5094407;28;20055;-63
2021/05/25 07:23:38;;;;;;;1.30;0.10;;;;;;;;;;5077224;28;20031;-63
2021/05/25 07:26:04;;;;;;;1.83;0.28;;;;;;;;;;5075382;28;20078;-63
2021/05/25 07:28:29;;;;;;;3.35;0.05;;;;;;;;;;5071148;28;20020;-63
2021/05/25 07:30:54;;;;;;;0.80;0.10;;;;;;;;;;5074011;28;20379;-63
2021/05/25 07:33:20;;;;;;;1.45;0.10;;;;;;;;;;5073980;28;20021;-64
2021/05/25 07:35:45;;;;;;;2.97;0.10;;;;;;;;;;5072047;28;20024;-63
2021/05/25 07:38:11;;;;;;;1.17;0.00;;;;;;;;;;5073243;28;20032;-63
2021/05/25 07:40:36;;;;;;;0.30;0.00;;;;;;;;;;5074932;28;20185;-63
2021/05/25 07:43:01;;;;;;;1.40;0.10;;;;;;;;;;5075855;28;20017;-64
2021/05/25 07:45:27;;;;;;;0.20;0.00;;;;;;;;;;5108162;28;20107;-64
2021/05/25 07:47:52;;;;;;;0.73;0.10;;;;;;;;;;5075870;28;20024;-64
2021/05/25 07:50:17;;;;;;;0.68;0.10;;;;;;;;;;5074522;28;20149;-64
2021/05/25 07:52:47;;;;;;;1.52;0.30;;;;;;;;;;5075416;28;20019;-68
2021/05/25 07:55:13;;;;;;;1.08;0.10;;;;;;;;;;5074319;28;20375;-64
2021/05/25 07:57:40;;;;;;;0.70;0.00;;;;;;;;;;5070235;28;20024;-64
2021/05/25 08:00:06;;;;;;;0.17;0.00;;;;;;;;;;5072553;28;20028;-64
2021/05/25 08:02:31;;;;;;;0.75;0.13;;;;;;;;;;5074616;28;20372;-65
2021/05/25 08:04:56;;;;;;;0.30;0.05;;;;;;;;;;5074932;28;20031;-64
2021/05/25 08:07:21;;;;;;;0.77;0.22;;;;;;;;;;5072276;28;20024;-65
2021/05/25 08:09:47;;;;;;;0.57;0.10;;;;;;;;;;5074924;28;20024;-64
2021/05/25 08:12:12;;;;;;;0.10;0.00;;;;;;;;;;5084296;28;20477;-64
2021/05/25 08:14:38;;;;;;;0.85;0.03;;;;;;;;;;5073907;28;20043;-64
2021/05/25 08:17:16;;;;;;;0.52;0.00;;;;;;;;;;5072072;28;20418;-64
2021/05/25 08:19:43;;;;;;;3.75;0.10;;;;;;;;;;5074803;28;20017;-64
2021/05/25 08:22:09;;;;;;;0.30;0.08;;;;;;;;;;5074809;28;20031;-64
2021/05/25 08:24:34;;;;;;;0.10;0.00;;;;;;;;;;5073229;28;20028;-63
2021/05/25 08:26:59;;;;;;;1.45;0.17;;;;;;;;;;5071392;28;20024;-64
2021/05/25 08:29:24;;;;;;;2.45;0.10;;;;;;;;;;5074576;28;20533;-65
2021/05/25 08:31:50;;;;;;;1.08;0.10;;;;;;;;;;5074331;28;20021;-65
2021/05/25 08:34:15;;;;;;;0.85;0.05;;;;;;;;;;5072874;28;20031;-65
2021/05/25 08:36:40;;;;;;;2.42;0.00;;;;;;;;;;5079038;28;20042;-64
2021/05/25 08:39:05;;;;;;;0.20;0.08;;;;;;;;;;5076082;28;20480;-65
2021/05/25 08:41:33;;;;;;;0.20;0.05;;;;;;;;;;5076557;28;20016;-66
2021/05/25 08:43:58;;;;;;;0.30;0.00;;;;;;;;;;5073419;28;20021;-65
2021/05/25 08:46:24;;;;;;;0.70;0.10;;;;;;;;;;5073799;28;20491;-65
2021/05/25 08:48:49;;;;;;;0.63;0.00;;;;;;;;;;5072599;28;20020;-65
2021/05/25 08:51:14;;;;;;;0.82;0.50;;;;;;;;;;5074179;28;20021;-66
2021/05/25 08:53:40;;;;;;;3.40;0.10;;;;;;;;;;5076634;28;20468;-65
2021/05/25 08:56:06;;;;;;;0.65;0.00;;;;;;;;;;5073724;28;20508;-66
2021/05/25 08:58:31;;;;;;;1.73;0.10;;;;;;;;;;5071109;28;20040;-65
2021/05/25 09:00:58;;;;;;;1.90;0.05;;;;;;;;;;5072931;28;20025;-65
2021/05/25 09:03:23;;;;;;;0.85;0.10;;;;;;;;;;5073432;28;20101;-65
2021/05/25 09:05:51;;;;;;;1.10;0.15;;;;;;;;;;5094256;28;20056;-65
2021/05/25 09:08:16;;;;;;;1.02;0.10;;;;;;;;;;5084595;28;20345;-65
2021/05/25 09:10:45;;;;;;;1.00;0.00;;;;;;;;;;5076448;28;20077;-65
2021/05/25 09:13:11;;;;;;;0.85;0.10;;;;;;;;;;5080861;28;20017;-65
2021/05/25 09:15:42;;;;;;;1.02;0.10;;;;;;;;;;5106263;28;20652;-65
2021/05/25 09:18:09;;;;;;;0.70;0.10;;;;;;;;;;5070113;28;20074;-65
2021/05/25 09:20:43;;;;;;;0.30;0.10;;;;;;;;;;5076797;28;20521;-66
2021/05/25 09:23:10;;;;;;;0.30;0.00;;;;;;;;;;5073574;28;20052;-66
2021/05/25 09:25:35;;;;;;;0.00;0.00;;;;;;;;;;5073034;28;20024;-66
2021/05/25 09:28:08;;;;;;;1.17;0.10;;;;;;;;;;5070805;28;20024;-66
2021/05/25 09:30:34;;;;;;;0.82;0.10;;;;;;;;;;5065782;28;20075;-66
2021/05/25 09:33:01;;;;;;;0.73;0.00;;;;;;;;;;5069775;28;20472;-65
2021/05/25 09:35:34;;;;;;;2.13;0.10;;;;;;;;;;5071688;28;20024;-65
2021/05/25 09:38:00;;;;;;;0.65;0.00;;;;;;;;;;5073343;28;20032;-65
2021/05/25 09:40:28;;;;;;;0.15;0.00;;;;;;;;;;5079494;28;20021;-65
2021/05/25 09:42:56;;;;;;;0.65;0.10;;;;;;;;;;5072097;28;20030;-65
2021/05/25 09:45:21;;;;;;;0.10;0.00;;;;;;;;;;5076197;28;20077;-66
2021/05/25 09:47:52;;;;;;;0.43;0.08;;;;;;;;;;5083399;28;20024;-66
2021/05/25 09:50:18;;;;;;;0.65;0.08;;;;;;;;;;5070593;28;20020;-65
2021/05/25 09:53:02;;;;;;;0.55;0.00;;;;;;;;;;5069065;28;20074;-66
2021/05/25 09:55:29;;;;;;;2.53;0.10;;;;;;;;;;5069192;28;20009;-65
2021/05/25 09:57:55;;;;;;;1.75;0.00;;;;;;;;;;5068949;28;20025;-65
2021/05/25 10:00:23;;;;;;;0.10;0.00;;;;;;;;;;5070179;28;20039;-65
2021/05/25 10:03:05;;;;;;;0.90;0.00;;;;;;;;;;5068503;28;20024;-65
2021/05/25 10:05:31;;;;;;;1.10;0.10;;;;;;;;;;5071911;28;20482;-65
2021/05/25 10:07:58;;;;;;;0.05;0.00;;;;;;;;;;5066376;28;20347;-66
2021/05/25 10:10:23;;;;;;;0.75;0.00;;;;;;;;;;5071348;28;20021;-66
2021/05/25 10:12:51;;;;;;;0.70;0.00;;;;;;;;;;5104196;27;20020;-66
2021/05/25 10:15:16;;;;;;;0.85;0.10;;;;;;;;;;5071650;28;20013;-66
2021/05/25 10:17:56;;;;;;;2.35;0.10;;;;;;;;;;5066229;28;20037;-66
2021/05/25 10:20:22;;;;;;;0.10;0.00;;;;;;;;;;5070837;28;20059;-66
2021/05/25 10:22:48;;;;;;;0.10;0.00;;;;;;;;;;5076312;28;20082;-65
2021/05/25 10:25:15;;;;;;;2.35;0.10;;;;;;;;;;5072227;28;20016;-64
2021/05/25 10:27:41;;;;;;;0.45;0.00;;;;;;;;;;5069144;28;20040;-65
2021/05/25 10:30:22;;;;;;;0.47;0.00;;;;;;;;;;5072270;28;20031;-66
2021/05/25 10:32:48;;;;;;;2.30;0.10;;;;;;;;;;5068805;28;20058;-65
2021/05/25 10:35:20;;;;;;;1.08;0.00;;;;;;;;;;5071564;28;20051;-66
2021/05/25 10:38:04;;;;;;;0.20;0.00;;;;;;;;;;5071002;28;20044;-66
2021/05/25 10:40:45;;;;;;;0.73;0.00;;;;;;;;;;5066275;28;20021;-65
2021/05/25 10:43:29;;;;;;;0.13;0.00;;;;;;;;;;5072081;28;20047;-66
2021/05/25 10:46:14;;;;;;;0.47;0.05;;;;;;;;;;5071489;28;20098;-65
2021/05/25 10:49:17;;;;;;;0.10;0.00;;;;;;;;;;5068603;28;20032;-65
2021/05/25 10:52:02;;;;;;;0.60;0.00;;;;;;;;;;5073178;28;20286;-65
2021/05/25 10:54:29;;;;;;;;;;;;;;;;;;5064119;28;20033;-66
2021/05/25 10:56:55;;;;;;;0.75;0.00;;;;;;;;;;5068900;28;19919;-66
2021/05/25 10:59:21;;;;;;;0.50;0.00;;;;;;;;;;5072125;28;20021;-66
2021/05/25 11:01:53;;;;;;;0.25;0.00;;;;;;;;;;5069990;28;20016;-65
2021/05/25 11:04:21;;;;;;;0.17;0.00;;;;;;;;;;5070484;28;20023;-66
2021/05/25 11:06:47;;;;;;;0.40;0.00;;;;;;;;;;5069687;28;20101;-66
2021/05/25 11:09:29;;;;;;;2.03;0.10;;;;;;;;;;5071777;28;20043;-65
2021/05/25 11:12:11;;;;;;;3.60;0.10;;;;;;;;;;5070540;28;20022;-65
2021/05/25 11:14:36;;;;;;;0.82;0.00;;;;;;;;;;5072982;28;20066;-65
2021/05/25 11:17:20;;;;;;;1.58;0.20;;;;;;;;;;5062773;28;20021;-65
2021/05/25 11:19:57;;;;;;;0.55;0.00;;;;;;;;;;5070089;28;20108;-65
2021/05/25 11:22:35;;;;;;;0.35;0.00;;;;;;;;;;5068238;28;20059;-65
2021/05/25 11:25:03;;;;;;;0.70;0.10;;;;;;;;;;5075921;28;20383;-65
2021/05/25 11:27:33;;;;;;;1.00;0.00;;;;;;;;;;5066964;28;20108;-66
2021/05/25 11:30:01;;;;;;;0.50;0.03;;;;;;;;;;5067356;28;20025;-66
2021/05/25 11:32:28;;;;;;;0.47;0.00;;;;;;;;;;5071592;28;20100;-65
2021/05/25 11:34:57;;;;;;;1.80;0.10;;;;;;;;;;5067120;28;20060;-66
2021/05/25 11:37:24;;;;;;;3.55;0.20;;;;;;;;;;5070671;28;20039;-66
2021/05/25 11:39:49;;;;;;;1.55;0.20;;;;;;;;;;5065248;28;20530;-65
2021/05/25 11:42:14;;;;;;;5.63;0.10;;;;;;;;;;5071066;28;20024;-64
2021/05/25 11:44:44;;;;;;;0.00;0.00;;;;;;;;;;5079377;28;20025;-64
2021/05/25 11:47:10;;;;;;;0.30;0.00;;;;;;;;;;5062188;28;20070;-64
2021/05/25 11:49:42;;;;;;;0.95;0.00;;;;;;;;;;5072286;28;20021;-64
2021/05/25 11:52:20;;;;;;;0.10;0.00;;;;;;;;;;5070026;28;20150;-65
2021/05/25 11:54:47;;;;;;;0.80;0.10;;;;;;;;;;5066921;28;20538;-65
2021/05/25 11:57:29;;;;;;;0.00;0.00;;;;;;;;;;5066042;28;20452;-66
2021/05/25 11:59:55;;;;;;;0.10;0.00;;;;;;;;;;5071073;28;20492;-65
2021/05/25 12:02:30;;;;;;;0.98;0.13;;;;;;;;;;5067166;28;20021;-65
2021/05/25 12:05:00;;;;;;;0.65;0.00;;;;;;;;;;5070165;28;20028;-66
2021/05/25 12:07:25;;;;;;;0.75;0.38;;;;;;;;;;5073475;28;20073;-66
2021/05/25 12:09:54;;;;;;;0.43;0.00;;;;;;;;;;5077938;28;20017;-65
2021/05/25 12:12:28;;;;;;;0.30;0.00;;;;;;;;;;5083831;28;20012;-66
2021/05/25 12:14:53;;;;;;;0.85;0.00;;;;;;;;;;5095719;28;20017;-65
2021/05/25 12:17:23;;;;;;;2.30;0.00;;;;;;;;;;5074583;28;20095;-65
2021/05/25 12:19:53;;;;;;;0.88;0.00;;;;;;;;;;5092203;28;20019;-66
2021/05/25 12:22:29;;;;;;;0.30;0.00;;;;;;;;;;5076486;28;20070;-65
2021/05/25 12:24:54;;;;;;;0.10;0.00;;;;;;;;;;5069484;28;20430;-66
2021/05/25 12:27:24;;;;;;;0.22;0.00;;;;;;;;;;5071432;28;20025;-66
2021/05/25 12:29:50;;;;;;;0.85;0.00;;;;;;;;;;5076140;28;20048;-66
2021/05/25 12:32:15;;;;;;;0.20;0.00;;;;;;;;;;5089044;28;20435;-65
2021/05/25 12:34:40;;;;;;;0.22;0.00;;;;;;;;;;5070706;28;20020;-66
2021/05/25 12:37:06;;;;;;;0.10;0.00;;;;;;;;;;5072791;28;20040;-66
2021/05/25 12:39:36;;;;;;;1.17;0.08;;;;;;;;;;5088656;28;20035;-65
2021/05/25 12:42:11;;;;;;;0.45;0.00;;;;;;;;;;5081268;28;20031;-66
2021/05/25 12:44:36;;;;;;;0.38;0.00;;;;;;;;;;5070304;28;20140;-65
2021/05/25 12:47:05;;;;;;;0.47;0.00;;;;;;;;;;5077311;28;20495;-65
2021/05/25 12:49:35;;;;;;;0.70;0.00;;;;;;;;;;5124980;27;20051;-65
2021/05/25 12:52:19;;;;;;;0.63;0.00;;;;;;;;;;5080548;28;20027;-65
2021/05/25 12:55:01;;;;;;;0.03;0.00;;;;;;;;;;5083399;28;20494;-65
2021/05/25 12:57:43;;;;;;;0.00;0.00;;;;;;;;;;5085195;28;20027;-66
2021/05/25 13:00:09;;;;;;;0.40;0.00;;;;;;;;;;5077224;28;20077;-66
2021/05/25 13:02:48;;;;;;;0.20;0.00;;;;;;;;;;5077407;28;20028;-65
2021/05/25 13:05:16;;;;;;;0.10;0.10;;;;;;;;;;5077346;28;20052;-66
2021/05/25 13:07:45;;;;;;;0.10;0.00;;;;;;;;;;5067711;28;20020;-65
2021/05/25 13:10:52;;;;;;;0.40;0.00;;;;;;;;;;5078325;28;20024;-66
2021/05/25 13:13:17;;;;;;;0.00;0.00;;;;;;;;;;5094238;28;20046;-65
2021/05/25 13:15:47;;;;;;;0.10;0.10;;;;;;;;;;5073241;28;20530;-65
2021/05/25 13:18:14;;;;;;;0.20;0.00;;;;;;;;;;5073607;28;20022;-65
2021/05/25 13:20:42;;;;;;;0.00;0.00;;;;;;;;;;5086646;28;20020;-66
2021/05/25 13:23:27;;;;;;;0.30;0.05;;;;;;;;;;5075386;28;20487;-66
2021/05/25 13:26:19;;;;;;;0.50;0.05;;;;;;;;;;5064364;28;20104;-65
2021/05/25 13:28:53;;;;;;;1.27;0.00;;;;;;;;;;5082047;28;20024;-66
2021/05/25 13:31:22;;;;;;;2.10;0.10;;;;;;;;;;5083394;28;20065;-64
2021/05/25 13:33:48;;;;;;;0.90;0.10;;;;;;;;;;5079835;28;20016;-65
2021/05/25 13:36:14;;;;;;;0.43;0.43;;;;;;;;;;5076335;28;20074;-65
2021/05/25 13:38:40;;;;;;;0.10;0.00;;;;;;;;;;5073044;28;20426;-64
2021/05/25 13:41:05;;;;;;;0.93;0.08;;;;;;;;;;5082258;28;20028;-64
2021/05/25 13:43:30;;;;;;;0.60;0.08;;;;;;;;;;5084939;28;20069;-64
2021/05/25 13:45:56;;;;;;;1.05;0.03;;;;;;;;;;5126275;27;20024;-66
2021/05/25 13:48:21;;;;;;;0.88;0.10;;;;;;;;;;5088995;28;20032;-66
2021/05/25 13:50:46;;;;;;;0.20;0.00;;;;;;;;;;5081237;28;20025;-65
2021/05/25 13:53:11;;;;;;;1.08;0.00;;;;;;;;;;5072676;28;20360;-65
2021/05/25 13:55:37;;;;;;;0.00;0.00;;;;;;;;;;5066821;28;20025;-65
2021/05/25 13:58:04;;;;;;;0.10;0.00;;;;;;;;;;5054142;28;20463;-64
2021/05/25 14:00:50;;;;;;;1.10;0.10;;;;;;;;;;5103249;28;20372;-64
2021/05/25 14:03:16;;;;;;;0.00;0.00;;;;;;;;;;5072744;28;20021;-65
2021/05/25 14:05:41;;;;;;;0.00;0.00;;;;;;;;;;5056033;28;20829;-64
2021/05/25 14:08:06;;;;;;;2.13;0.10;;;;;;;;;;5054161;28;20561;-64
2021/05/25 14:10:35;;;;;;;0.20;0.00;;;;;;;;;;5067471;28;20549;-64
2021/05/25 14:13:01;;;;;;;0.10;0.00;;;;;;;;;;5072053;28;20150;-65
2021/05/25 14:15:26;;;;;;;0.57;0.10;;;;;;;;;;5112641;27;20025;-66
2021/05/25 14:17:51;;;;;;;0.00;0.00;;;;;;;;;;5085179;28;20074;-65
2021/05/25 14:20:16;;;;;;;2.20;0.00;;;;;;;;;;5072140;28;20017;-64
2021/05/25 14:22:42;;;;;;;0.47;0.00;;;;;;;;;;5071506;28;20285;-64
2021/05/25 14:25:07;;;;;;;0.13;0.00;;;;;;;;;;5076631;28;20338;-64
2021/05/25 14:27:32;;;;;;;0.15;0.10;;;;;;;;;;5083842;28;20141;-65
2021/05/25 14:29:58;;;;;;;0.08;0.00;;;;;;;;;;5089806;28;20020;-66
2021/05/25 14:32:23;;;;;;;0.20;0.00;;;;;;;;;;5075792;28;20456;-66
2021/05/25 14:34:48;;;;;;;0.40;0.28;;;;;;;;;;5086947;28;20020;-65
2021/05/25 14:37:13;;;;;;;1.15;0.00;;;;;;;;;;5067744;28;20054;-64
2021/05/25 14:39:39;;;;;;;1.58;0.00;;;;;;;;;;5087778;28;20455;-65
2021/05/25 14:42:04;;;;;;;0.82;0.00;;;;;;;;;;5075561;28;20062;-65
2021/05/25 14:44:30;;;;;;;0.10;0.00;;;;;;;;;;5076432;28;20077;-65
2021/05/25 14:46:57;;;;;;;0.20;0.00;;;;;;;;;;5070279;28;20475;-65